createdAt,value
2024-02-13T00:01:13.364Z,94870.16
2024-02-13T00:03:40.977Z,94871.94
2024-02-13T00:06:10.803Z,94862.31
2024-02-13T00:08:45.268Z,94876.34
2024-02-13T00:11:15.100Z,94877.16
2024-02-13T00:13:44.387Z,94885.81
2024-02-13T00:16:13.305Z,94884.16
2024-02-13T00:18:40.930Z,94891.03
2024-02-13T00:21:08.956Z,94888.59
2024-02-13T00:23:37.473Z,94894.63
2024-02-13T00:26:08.529Z,94899.84
2024-02-13T00:28:36.305Z,94908.50
2024-02-13T00:31:05.949Z,94915.50
2024-02-13T00:33:36.013Z,94913.72
2024-02-13T00:36:03.970Z,94916.34
2024-02-13T00:38:31.513Z,94925.94
2024-02-13T00:40:59.056Z,94925.94
2024-02-13T00:43:27.838Z,94930.38
2024-02-13T00:45:56.990Z,94930.38
2024-02-13T00:48:24.588Z,94946.03
2024-02-13T00:50:53.725Z,94940.00
2024-02-13T00:53:21.625Z,94938.22
2024-02-13T00:55:49.641Z,94942.44
2024-02-13T00:58:17.327Z,94950.28
2024-02-13T01:00:44.863Z,94955.66
2024-02-13T01:03:12.956Z,94957.28
2024-02-13T01:05:42.334Z,94965.13
2024-02-13T01:08:11.948Z,94966.94
2024-02-13T01:10:39.593Z,94972.00
2024-02-13T01:13:08.431Z,94974.78
2024-02-13T01:15:35.897Z,94974.78
2024-02-13T01:18:03.541Z,94972.16
2024-02-13T01:20:31.148Z,94976.56
2024-02-13T01:22:58.753Z,94976.56
2024-02-13T01:25:27.597Z,94986.84
2024-02-13T01:27:56.556Z,94990.44
2024-02-13T01:30:24.801Z,94993.06
2024-02-13T01:32:52.400Z,94992.22
2024-02-13T01:35:20.170Z,94989.78
2024-02-13T01:37:48.361Z,94998.28
2024-02-13T01:40:17.407Z,94993.19
2024-02-13T01:42:49.854Z,94995.78
2024-02-13T01:45:18.217Z,95006.25
2024-02-13T01:47:46.260Z,95008.84
2024-02-13T01:50:19.312Z,95008.06
2024-02-13T01:52:47.919Z,95011.63
2024-02-13T01:55:17.439Z,95021.09
2024-02-13T01:57:45.189Z,95024.69
2024-02-13T02:00:15.339Z,95024.69
2024-02-13T02:02:44.436Z,95028.13
2024-02-13T02:05:12.635Z,95035.13
2024-02-13T02:07:41.925Z,95035.94
2024-02-13T02:10:10.087Z,95047.34
2024-02-13T02:12:37.656Z,95036.91
2024-02-13T02:15:05.534Z,95040.34
2024-02-13T02:17:34.716Z,95043.94
2024-02-13T02:20:02.211Z,95047.34
2024-02-13T02:22:29.740Z,95045.56
2024-02-13T02:24:57.236Z,95049.97
2024-02-13T02:27:26.080Z,95055.19
2024-02-13T02:29:53.850Z,95051.78
2024-02-13T02:32:21.523Z,95050.94
2024-02-13T02:34:49.593Z,95060.41
2024-02-13T02:37:17.147Z,95067.44
2024-02-13T02:39:44.663Z,95073.63
2024-02-13T02:42:14.449Z,95069.22
2024-02-13T02:44:43.299Z,95068.41
2024-02-13T02:47:11.117Z,95078.03
2024-02-13T02:49:39.503Z,95072.78
2024-02-13T02:52:09.239Z,95073.63
2024-02-13T02:54:37.568Z,95081.44
2024-02-13T02:57:05.707Z,95093.69
2024-02-13T02:59:33.436Z,95093.69
2024-02-13T03:02:02.841Z,95096.28
2024-02-13T03:04:30.806Z,95101.50
2024-02-13T03:06:58.677Z,95102.50
2024-02-13T03:09:26.837Z,95106.06
2024-02-13T03:11:54.414Z,95110.34
2024-02-13T03:14:22.006Z,95110.34
2024-02-13T03:16:51.398Z,95113.91
2024-02-13T03:19:20.276Z,95112.94
2024-02-13T03:21:47.851Z,95119.13
2024-02-13T03:24:15.392Z,95128.63
2024-02-13T03:26:42.933Z,95125.34
2024-02-13T03:29:10.458Z,95126.97
2024-02-13T03:31:37.999Z,95134.78
2024-02-13T03:34:05.572Z,95128.75
2024-02-13T03:36:34.501Z,95134.78
2024-02-13T03:39:02.026Z,95134.78
2024-02-13T03:41:29.579Z,95145.22
2024-02-13T03:43:57.069Z,95143.44
2024-02-13T03:46:24.533Z,95145.22
2024-02-13T03:48:52.090Z,95146.22
2024-02-13T03:51:19.637Z,95160.22
2024-02-13T03:53:49.561Z,95163.50
2024-02-13T03:56:17.117Z,95166.28
2024-02-13T03:58:44.948Z,95171.50
2024-02-13T04:01:12.739Z,95170.53
2024-02-13T04:03:40.267Z,95175.91
2024-02-13T04:06:09.917Z,95173.13
2024-02-13T04:08:37.529Z,95174.13
2024-02-13T04:11:06.441Z,95184.56
2024-02-13T04:13:33.937Z,95183.72
2024-02-13T04:16:02.390Z,95191.56
2024-02-13T04:18:29.889Z,95190.72
2024-02-13T04:20:57.521Z,95186.34
2024-02-13T04:23:25.074Z,95190.72
2024-02-13T04:25:52.603Z,95197.78
2024-02-13T04:28:22.563Z,95195.97
2024-02-13T04:30:50.044Z,95195.16
2024-02-13T04:33:18.021Z,95199.56
2024-02-13T04:35:45.570Z,95204.78
2024-02-13T04:38:13.115Z,95200.38
2024-02-13T04:40:40.606Z,95203.78
2024-02-13T04:43:08.413Z,95209.00
2024-02-13T04:45:37.658Z,95201.19
2024-02-13T04:48:05.747Z,95218.66
2024-02-13T04:50:34.216Z,95222.06
2024-02-13T04:53:01.779Z,95220.44
2024-02-13T04:55:29.246Z,95219.63
2024-02-13T04:57:58.194Z,95222.91
2024-02-13T05:00:26.433Z,95213.44
2024-02-13T05:03:04.272Z,95220.28
2024-02-13T05:05:49.275Z,95216.84
2024-02-13T05:08:17.242Z,95219.44
2024-02-13T05:10:44.753Z,95224.56
2024-02-13T05:13:16.000Z,95224.56
2024-02-13T05:15:43.485Z,95228.78
2024-02-13T05:18:12.970Z,95226.19
2024-02-13T05:20:40.683Z,95227.84
2024-02-13T05:23:11.778Z,95237.28
2024-02-13T05:25:40.342Z,95232.06
2024-02-13T05:28:07.982Z,95237.16
2024-02-13T05:30:36.746Z,95244.16
2024-02-13T05:33:05.502Z,95237.16
2024-02-13T05:35:37.079Z,95238.94
2024-02-13T05:38:04.647Z,95236.34
2024-02-13T05:40:32.221Z,95239.78
2024-02-13T05:43:00.634Z,95237.28
2024-02-13T05:45:28.330Z,95244.16
2024-02-13T05:47:55.894Z,95245.78
2024-02-13T05:50:23.630Z,95244.16
2024-02-13T05:52:53.857Z,95240.72
2024-02-13T05:55:21.377Z,95252.97
2024-02-13T05:57:48.851Z,95246.78
2024-02-13T06:00:17.423Z,95252.00
2024-02-13T06:02:45.121Z,95252.00
2024-02-13T06:05:13.258Z,95255.44
2024-02-13T06:07:41.286Z,95268.50
2024-02-13T06:10:11.203Z,95259.84
2024-02-13T06:12:39.797Z,95264.22
2024-02-13T06:15:07.763Z,95270.28
2024-02-13T06:17:35.412Z,95266.84
2024-02-13T06:20:06.321Z,95264.22
2024-02-13T06:22:33.527Z,95265.06
2024-02-13T06:25:01.262Z,95271.25
2024-02-13T06:27:30.173Z,95274.69
2024-02-13T06:29:57.800Z,95279.91
2024-02-13T06:32:25.868Z,95278.25
2024-02-13T06:34:53.943Z,95286.06
2024-02-13T06:37:21.769Z,95284.28
2024-02-13T06:39:49.698Z,95280.06
2024-02-13T06:42:17.375Z,95293.78
2024-02-13T06:44:46.272Z,95296.53
2024-02-13T06:47:13.812Z,95298.34
2024-02-13T06:49:41.359Z,95299.97
2024-02-13T06:52:08.949Z,95310.41
2024-02-13T06:54:36.471Z,95306.16
2024-02-13T06:57:04.055Z,95310.41
2024-02-13T06:59:32.050Z,95311.38
2024-02-13T07:02:01.148Z,95311.38
2024-02-13T07:04:28.718Z,95321.00
2024-02-13T07:07:08.634Z,95321.84
2024-02-13T07:09:48.328Z,95327.84
2024-02-13T07:12:15.885Z,95328.69
2024-02-13T07:14:43.446Z,95339.13
2024-02-13T07:17:12.600Z,95333.06
2024-02-13T07:19:42.169Z,95331.28
2024-02-13T07:22:10.004Z,95338.19
2024-02-13T07:24:38.224Z,95335.56
2024-02-13T07:27:06.500Z,95342.56
2024-02-13T07:29:34.450Z,95353.84
2024-02-13T07:32:02.283Z,95351.22
2024-02-13T07:34:38.259Z,95355.47
2024-02-13T07:37:07.078Z,95358.09
2024-02-13T07:39:34.707Z,95352.19
2024-02-13T07:42:02.249Z,95366.06
2024-02-13T07:44:30.453Z,95354.78
2024-02-13T07:46:58.224Z,95373.06
2024-02-13T07:49:26.113Z,95364.41
2024-02-13T07:51:54.951Z,95371.44
2024-02-13T07:54:23.150Z,95373.06
2024-02-13T07:56:50.839Z,95362.63
2024-02-13T07:59:18.564Z,95377.47
2024-02-13T08:01:46.263Z,95369.63
2024-02-13T08:04:15.502Z,95361.78
2024-02-13T08:06:43.611Z,95373.06
2024-02-13T08:09:15.090Z,95369.78
2024-02-13T08:11:44.065Z,95374.06
2024-02-13T08:14:12.064Z,95375.84
2024-02-13T08:16:39.593Z,95375.84
2024-02-13T08:19:07.230Z,95381.06
2024-02-13T08:21:34.734Z,95375.84
2024-02-13T08:24:02.782Z,95378.59
2024-02-13T08:26:31.673Z,95379.28
2024-02-13T08:28:59.182Z,95380.22
2024-02-13T08:31:27.131Z,95376.78
2024-02-13T08:33:54.858Z,95376.78
2024-02-13T08:36:22.658Z,95380.38
2024-02-13T08:38:50.412Z,95383.00
2024-02-13T08:41:17.957Z,95382.00
2024-02-13T08:43:48.665Z,95383.00
2024-02-13T08:46:20.213Z,95388.06
2024-02-13T08:48:47.839Z,95388.06
2024-02-13T08:51:15.581Z,95388.91
2024-02-13T08:53:43.241Z,95394.13
2024-02-13T08:56:10.757Z,95389.72
2024-02-13T08:58:38.662Z,95394.94
2024-02-13T09:01:07.586Z,95397.56
2024-02-13T09:03:35.240Z,95406.19
2024-02-13T09:06:05.717Z,95404.41
2024-02-13T09:08:33.691Z,95410.47
2024-02-13T09:11:01.375Z,95398.22
2024-02-13T09:13:30.060Z,95402.78
2024-02-13T09:15:57.896Z,95402.63
2024-02-13T09:18:26.931Z,95400.97
2024-02-13T09:20:55.331Z,95406.06
2024-02-13T09:23:23.058Z,95403.56
2024-02-13T09:25:52.727Z,95397.41
2024-02-13T09:28:20.278Z,95406.06
2024-02-13T09:30:48.568Z,95409.50
2024-02-13T09:33:16.393Z,95420.91
2024-02-13T09:35:45.589Z,95409.63
2024-02-13T09:38:13.118Z,95410.47
2024-02-13T09:40:42.071Z,95406.19
2024-02-13T09:43:10.154Z,95404.41
2024-02-13T09:45:41.022Z,95406.19
2024-02-13T09:48:13.200Z,95411.41
2024-02-13T09:50:44.545Z,95412.41
2024-02-13T09:53:18.572Z,95413.22
2024-02-13T09:55:47.338Z,95420.06
2024-02-13T09:58:15.164Z,95416.78
2024-02-13T10:00:43.440Z,95412.41
2024-02-13T10:03:13.097Z,95402.78
2024-02-13T10:05:41.738Z,95401.94
2024-02-13T10:08:10.012Z,95401.94
2024-02-13T10:10:39.671Z,95412.41
2024-02-13T10:13:07.936Z,95412.41
2024-02-13T10:15:42.023Z,95411.56
2024-02-13T10:18:12.756Z,95409.78
2024-02-13T10:20:41.394Z,95414.16
2024-02-13T10:23:09.237Z,95415.97
2024-02-13T10:25:38.218Z,95421.06
2024-02-13T10:28:10.801Z,95427.22
2024-02-13T10:30:39.002Z,95425.44
2024-02-13T10:33:07.605Z,95423.78
2024-02-13T10:35:35.413Z,95427.38
2024-02-13T10:38:04.415Z,95423.00
2024-02-13T10:40:35.073Z,95419.41
2024-02-13T10:43:04.541Z,95418.56
2024-02-13T10:45:33.421Z,95416.94
2024-02-13T10:48:04.921Z,95424.78
2024-02-13T10:50:32.976Z,95430.00
2024-02-13T10:53:01.202Z,95426.56
2024-02-13T10:55:28.712Z,95418.72
2024-02-13T10:57:59.369Z,95415.97
2024-02-13T11:00:27.703Z,95415.97
2024-02-13T11:02:57.846Z,95405.50
2024-02-13T11:05:26.674Z,95408.94
2024-02-13T11:07:54.840Z,95410.72
2024-02-13T11:10:30.453Z,95420.22
2024-02-13T11:12:58.705Z,95422.00
2024-02-13T11:15:29.479Z,95422.00
2024-02-13T11:17:58.960Z,95421.06
2024-02-13T11:20:29.043Z,95407.16
2024-02-13T11:22:57.809Z,95413.34
2024-02-13T11:25:28.918Z,95411.56
2024-02-13T11:28:03.339Z,95411.56
2024-02-13T11:30:31.192Z,95405.50
2024-02-13T11:33:04.425Z,95408.94
2024-02-13T11:35:32.631Z,95409.09
2024-02-13T11:38:10.708Z,95402.91
2024-02-13T11:40:40.710Z,95408.13
2024-02-13T11:43:08.718Z,95408.13
2024-02-13T11:45:37.450Z,95403.72
2024-02-13T11:48:08.189Z,95397.69
2024-02-13T11:50:37.787Z,95407.31
2024-02-13T11:53:05.689Z,95398.66
2024-02-13T11:55:33.682Z,95400.28
2024-02-13T11:58:04.105Z,95405.50
2024-02-13T12:00:31.680Z,95398.66
2024-02-13T12:02:59.224Z,95397.00
2024-02-13T12:05:29.576Z,95403.06
2024-02-13T12:07:58.000Z,95402.09
2024-02-13T12:10:25.693Z,95405.50
2024-02-13T12:12:53.952Z,95399.63
2024-02-13T12:15:23.839Z,95402.22
2024-02-13T12:18:01.434Z,95402.22
2024-02-13T12:20:31.179Z,95396.06
2024-02-13T12:23:00.921Z,95396.06
2024-02-13T12:25:28.465Z,95390.00
2024-02-13T12:28:01.552Z,95390.00
2024-02-13T12:30:29.119Z,95390.81
2024-02-13T12:32:56.958Z,95388.22
2024-02-13T12:35:33.317Z,95381.34
2024-02-13T12:38:14.810Z,95382.16
2024-02-13T12:40:43.033Z,95370.88
2024-02-13T12:43:10.901Z,95370.09
2024-02-13T12:45:42.708Z,95370.88
2024-02-13T12:48:11.343Z,95370.09
2024-02-13T12:50:39.072Z,95374.34
2024-02-13T12:53:10.365Z,95369.94
2024-02-13T12:55:41.760Z,95366.50
2024-02-13T12:58:11.119Z,95365.66
2024-02-13T13:00:40.116Z,95364.72
2024-02-13T13:03:11.081Z,95369.94
2024-02-13T13:05:42.646Z,95375.00
2024-02-13T13:08:12.939Z,95375.00
2024-02-13T13:10:41.956Z,95370.63
2024-02-13T13:13:09.466Z,95370.63
2024-02-13T13:15:37.030Z,95371.44
2024-02-13T13:18:04.709Z,95365.41
2024-02-13T13:20:34.165Z,95367.03
2024-02-13T13:23:01.823Z,95369.63
2024-02-13T13:25:32.801Z,95367.03
2024-02-13T13:28:06.545Z,95369.63
2024-02-13T13:30:34.413Z,95366.22
2024-02-13T13:33:03.505Z,95366.22
2024-02-13T13:35:32.309Z,95367.84
2024-02-13T13:38:00.872Z,95378.44
2024-02-13T13:40:34.500Z,95371.44
2024-02-13T13:43:04.191Z,95374.84
2024-02-13T13:45:31.757Z,95367.03
2024-02-13T13:47:59.516Z,95374.06
2024-02-13T13:50:28.237Z,95368.84
2024-02-13T13:52:55.944Z,95374.06
2024-02-13T13:55:23.469Z,95368.84
2024-02-13T13:57:51.338Z,95377.63
2024-02-13T14:00:22.783Z,95383.66
2024-02-13T14:02:50.321Z,95374.19
2024-02-13T14:05:19.218Z,95379.41
2024-02-13T14:07:46.821Z,95377.63
2024-02-13T14:10:14.481Z,95381.06
2024-02-13T14:12:43.662Z,95374.19
2024-02-13T14:15:11.286Z,95371.56
2024-02-13T14:17:40.719Z,95372.56
2024-02-13T14:20:11.099Z,95372.56
2024-02-13T14:22:43.945Z,95376.00
2024-02-13T14:25:13.465Z,95370.78
2024-02-13T14:27:40.950Z,95371.56
2024-02-13T14:30:08.926Z,95363.88
2024-02-13T14:32:36.552Z,95374.19
2024-02-13T14:35:07.249Z,95369.09
2024-02-13T14:37:34.847Z,95373.38
2024-02-13T14:40:02.410Z,95365.66
2024-02-13T14:42:30.484Z,95361.28
2024-02-13T14:44:58.065Z,95366.50
2024-02-13T14:47:25.675Z,95364.72
2024-02-13T14:49:53.397Z,95365.66
2024-02-13T14:52:22.385Z,95371.72
2024-02-13T14:54:49.978Z,95368.28
2024-02-13T14:57:17.845Z,95371.72
2024-02-13T14:59:46.400Z,95373.50
2024-02-13T15:02:14.524Z,95370.88
2024-02-13T15:04:43.060Z,95371.72
2024-02-13T15:07:10.815Z,95368.28
2024-02-13T15:09:39.757Z,95375.31
2024-02-13T15:12:08.638Z,95363.06
2024-02-13T15:14:36.590Z,95370.09
2024-02-13T15:17:04.216Z,95364.72
2024-02-13T15:19:31.733Z,95372.41
2024-02-13T15:21:59.272Z,95368.16
2024-02-13T15:24:26.848Z,95371.72
2024-02-13T15:26:55.917Z,95371.56
2024-02-13T15:29:24.699Z,95374.19
2024-02-13T15:31:52.301Z,95380.22
2024-02-13T15:34:20.014Z,95376.00
2024-02-13T15:37:02.575Z,95381.34
2024-02-13T15:39:48.496Z,95372.56
2024-02-13T15:42:34.860Z,95380.38
2024-02-13T15:45:19.939Z,95376.00
2024-02-13T15:47:47.695Z,95371.72
2024-02-13T15:50:19.586Z,95374.34
2024-02-13T15:52:49.513Z,95370.88
2024-02-13T15:55:19.466Z,95384.63
2024-02-13T15:57:48.468Z,95382.16
2024-02-13T16:00:16.734Z,95389.16
2024-02-13T16:02:45.086Z,95388.38
2024-02-13T16:05:16.485Z,95399.63
2024-02-13T16:07:47.819Z,95391.78
2024-02-13T16:10:16.092Z,95392.59
2024-02-13T16:12:44.418Z,95393.44
2024-02-13T16:15:13.765Z,95394.38
2024-02-13T16:17:41.539Z,95397.00
2024-02-13T16:20:10.049Z,95408.28
2024-02-13T16:22:38.641Z,95416.09
2024-02-13T16:25:07.526Z,95407.44
2024-02-13T16:27:35.163Z,95406.66
2024-02-13T16:30:02.941Z,95416.09
2024-02-13T16:32:36.383Z,95413.66
2024-02-13T16:35:09.711Z,95420.50
2024-02-13T16:37:44.329Z,95421.34
2024-02-13T16:40:14.953Z,95417.88
2024-02-13T16:42:42.508Z,95423.13
2024-02-13T16:45:10.370Z,95428.34
2024-02-13T16:47:39.487Z,95425.72
2024-02-13T16:50:13.265Z,95428.47
2024-02-13T16:52:40.993Z,95430.16
2024-02-13T16:55:09.599Z,95432.88
2024-02-13T16:57:41.307Z,95434.53
2024-02-13T17:00:11.651Z,95436.31
2024-02-13T17:02:41.208Z,95440.59
2024-02-13T17:05:12.434Z,95442.22
2024-02-13T17:07:40.539Z,95437.16
2024-02-13T17:10:11.658Z,95441.53
2024-02-13T17:12:39.308Z,95448.41
2024-02-13T17:15:08.643Z,95445.81
2024-02-13T17:17:39.317Z,95452.66
2024-02-13T17:20:12.291Z,95456.09
2024-02-13T17:22:40.157Z,95459.53
2024-02-13T17:25:12.564Z,95458.56
2024-02-13T17:27:42.333Z,95462.16
2024-02-13T17:30:12.904Z,95461.31
2024-02-13T17:32:41.447Z,95461.31
2024-02-13T17:35:11.090Z,95469.84
2024-02-13T17:37:38.797Z,95467.38
2024-02-13T17:40:08.977Z,95471.63
2024-02-13T17:42:36.538Z,95462.97
2024-02-13T17:45:05.739Z,95465.56
2024-02-13T17:47:33.653Z,95470.78
2024-02-13T17:50:01.331Z,95464.78
2024-02-13T17:52:30.642Z,95469.16
2024-02-13T17:54:59.439Z,95456.94
2024-02-13T17:57:28.753Z,95463.94
2024-02-13T17:59:57.623Z,95467.50
2024-02-13T18:02:25.229Z,95473.41
2024-02-13T18:04:52.737Z,95473.56
2024-02-13T18:07:20.301Z,95478.78
2024-02-13T18:09:50.920Z,95470.09
2024-02-13T18:12:18.391Z,95461.47
2024-02-13T18:14:48.573Z,95471.94
2024-02-13T18:17:17.670Z,95474.53
2024-02-13T18:19:45.282Z,95482.22
2024-02-13T18:22:13.159Z,95477.16
2024-02-13T18:24:43.134Z,95473.56
2024-02-13T18:27:12.334Z,95477.16
2024-02-13T18:29:39.901Z,95482.38
2024-02-13T18:32:08.297Z,95490.19
2024-02-13T18:34:35.952Z,95484.16
2024-02-13T18:37:05.384Z,95486.75
2024-02-13T18:39:34.173Z,95489.38
2024-02-13T18:42:01.683Z,95480.69
2024-02-13T18:44:32.090Z,95482.50
2024-02-13T18:46:59.578Z,95489.38
2024-02-13T18:49:27.215Z,95482.50
2024-02-13T18:51:54.763Z,95491.16
2024-02-13T18:54:26.178Z,95491.97
2024-02-13T18:56:54.167Z,95485.09
2024-02-13T18:59:26.052Z,95491.16
2024-02-13T19:01:58.890Z,95489.50
2024-02-13T19:04:26.441Z,95486.88
2024-02-13T19:06:54.415Z,95499.13
2024-02-13T19:09:22.031Z,95493.91
2024-02-13T19:11:52.501Z,95493.09
2024-02-13T19:14:21.164Z,95496.53
2024-02-13T19:16:51.530Z,95496.53
2024-02-13T19:19:20.389Z,95497.47
2024-02-13T19:21:50.421Z,95499.94
2024-02-13T19:24:18.002Z,95493.09
2024-02-13T19:26:46.795Z,95493.91
2024-02-13T19:29:14.353Z,95498.16
2024-02-13T19:31:42.736Z,95498.97
2024-02-13T19:34:10.524Z,95498.97
2024-02-13T19:36:39.682Z,95498.16
2024-02-13T19:39:09.029Z,95501.59
2024-02-13T19:41:40.762Z,95499.94
2024-02-13T19:44:09.954Z,95501.59
2024-02-13T19:46:37.432Z,95503.38
2024-02-13T19:49:05.825Z,95498.97
2024-02-13T19:51:34.152Z,95506.81
2024-02-13T19:54:03.244Z,95499.94
2024-02-13T19:56:30.799Z,95503.38
2024-02-13T19:58:58.293Z,95502.53
2024-02-13T20:01:25.781Z,95497.19
2024-02-13T20:03:53.320Z,95499.94
2024-02-13T20:06:20.870Z,95504.34
2024-02-13T20:08:48.437Z,95507.75
2024-02-13T20:11:18.005Z,95498.16
2024-02-13T20:13:45.570Z,95500.75
2024-02-13T20:16:13.103Z,95493.09
2024-02-13T20:18:40.824Z,95503.53
2024-02-13T20:21:15.853Z,95498.31
2024-02-13T20:23:46.854Z,95501.75
2024-02-13T20:26:15.103Z,95497.47
2024-02-13T20:28:44.025Z,95500.09
2024-02-13T20:31:11.579Z,95493.09
2024-02-13T20:33:39.309Z,95494.84
2024-02-13T20:36:08.461Z,95494.84
2024-02-13T20:38:37.928Z,95500.91
2024-02-13T20:41:09.344Z,95495.84
2024-02-13T20:43:38.127Z,95501.06
2024-02-13T20:46:07.113Z,95496.63
2024-02-13T20:48:34.678Z,95500.09
2024-02-13T20:51:03.072Z,95493.22
2024-02-13T20:53:31.830Z,95506.28
2024-02-13T20:56:03.177Z,95501.06
2024-02-13T20:58:33.392Z,95504.34
2024-02-13T21:01:01.026Z,95493.91
2024-02-13T21:03:30.623Z,95500.91
2024-02-13T21:05:58.362Z,95504.34
2024-02-13T21:08:26.949Z,95502.53
2024-02-13T21:10:54.490Z,95511.34
2024-02-13T21:13:22.016Z,95513.81
2024-02-13T21:15:49.479Z,95505.97
2024-02-13T21:18:17.223Z,95503.38
2024-02-13T21:20:47.648Z,95509.56
2024-02-13T21:23:32.916Z,95509.56
2024-02-13T21:26:00.490Z,95506.81
2024-02-13T21:28:28.010Z,95514.66
2024-02-13T21:31:00.280Z,95509.44
2024-02-13T21:33:28.907Z,95507.66
2024-02-13T21:36:00.773Z,95506.66
2024-02-13T21:38:28.352Z,95513.69
2024-02-13T21:40:56.149Z,95512.88
2024-02-13T21:43:25.282Z,95511.09
2024-02-13T21:45:53.073Z,95516.16
2024-02-13T21:48:20.767Z,95514.50
2024-02-13T21:50:48.361Z,95508.47
2024-02-13T21:53:17.286Z,95508.47
2024-02-13T21:55:44.820Z,95511.88
2024-02-13T21:58:12.653Z,95506.66
2024-02-13T22:00:40.257Z,95500.66
2024-02-13T22:03:07.851Z,95511.09
2024-02-13T22:05:35.506Z,95512.88
2024-02-13T22:08:03.069Z,95512.72
2024-02-13T22:10:32.346Z,95511.09
2024-02-13T22:12:59.898Z,95516.31
2024-02-13T22:15:27.417Z,95513.69
2024-02-13T22:17:55.090Z,95510.25
2024-02-13T22:20:22.902Z,95509.44
2024-02-13T22:22:50.495Z,95512.03
2024-02-13T22:25:19.477Z,95524.16
2024-02-13T22:27:48.383Z,95518.09
2024-02-13T22:30:15.922Z,95516.31
2024-02-13T22:32:44.253Z,95517.25
2024-02-13T22:35:11.997Z,95524.25
2024-02-13T22:37:39.534Z,95521.66
2024-02-13T22:40:08.579Z,95527.84
2024-02-13T22:42:36.155Z,95532.09
2024-02-13T22:45:05.570Z,95527.03
2024-02-13T22:47:34.194Z,95524.41
2024-02-13T22:50:01.749Z,95528.66
2024-02-13T22:52:29.311Z,95526.03
2024-02-13T22:54:56.804Z,95523.44
2024-02-13T22:57:24.295Z,95513.97
2024-02-13T22:59:51.807Z,95514.81
2024-02-13T23:02:20.663Z,95514.81
2024-02-13T23:04:51.597Z,95519.19
2024-02-13T23:07:19.629Z,95523.59
2024-02-13T23:09:47.228Z,95524.41
2024-02-13T23:12:15.755Z,95523.59
2024-02-13T23:14:43.309Z,95523.59
2024-02-13T23:17:11.533Z,95521.81
2024-02-13T23:19:40.944Z,95517.53
2024-02-13T23:22:10.381Z,95520.13
2024-02-13T23:24:38.907Z,95527.84
2024-02-13T23:27:06.636Z,95520.13
2024-02-13T23:29:34.252Z,95522.75
2024-02-13T23:32:01.709Z,95527.03
2024-02-13T23:34:29.274Z,95532.41
2024-02-13T23:36:58.098Z,95533.19
2024-02-13T23:39:25.608Z,95537.63
2024-02-13T23:41:53.131Z,95531.56
2024-02-13T23:44:20.706Z,95534.16
2024-02-13T23:46:48.205Z,95538.41
2024-02-13T23:49:15.875Z,95532.41
2024-02-13T23:51:43.447Z,95541.03
2024-02-13T23:54:12.340Z,95540.22
2024-02-13T23:56:39.891Z,95542.84
2024-02-13T23:59:07.517Z,95540.22
